sensor_id;sensor_type;location;lat;lon;timestamp;P1;durP1;ratioP1;P2;durP2;ratioP2
830;SDS011;397;50.564;7.272;2023-11-21T00:00:43;4.77;;;4.27;;
830;SDS011;397;50.564;7.272;2023-11-21T00:03:11;7.00;;;5.80;;
830;SDS011;397;50.564;7.272;2023-11-21T00:05:41;6.73;;;4.13;;
830;SDS011;397;50.564;7.272;2023-11-21T00:08:08;7.50;;;5.70;;
830;SDS011;397;50.564;7.272;2023-11-21T00:10:36;5.40;;;4.60;;
830;SDS011;397;50.564;7.272;2023-11-21T00:13:04;8.47;;;6.03;;
830;SDS011;397;50.564;7.272;2023-11-21T00:15:32;7.00;;;5.17;;
830;SDS011;397;50.564;7.272;2023-11-21T00:17:59;8.17;;;5.43;;
830;SDS011;397;50.564;7.272;2023-11-21T00:20:27;6.43;;;5.73;;
830;SDS011;397;50.564;7.272;2023-11-21T00:22:54;6.73;;;5.30;;
830;SDS011;397;50.564;7.272;2023-11-21T00:25:22;7.10;;;5.40;;
830;SDS011;397;50.564;7.272;2023-11-21T00:27:50;9.83;;;7.70;;
830;SDS011;397;50.564;7.272;2023-11-21T00:30:18;12.03;;;8.80;;
830;SDS011;397;50.564;7.272;2023-11-21T00:32:47;13.73;;;10.67;;
830;SDS011;397;50.564;7.272;2023-11-21T00:35:15;11.27;;;9.87;;
830;SDS011;397;50.564;7.272;2023-11-21T00:37:42;15.67;;;10.90;;
830;SDS011;397;50.564;7.272;2023-11-21T00:40:10;16.43;;;12.37;;
830;SDS011;397;50.564;7.272;2023-11-21T00:42:40;15.20;;;12.13;;
830;SDS011;397;50.564;7.272;2023-11-21T00:45:08;14.70;;;12.43;;
830;SDS011;397;50.564;7.272;2023-11-21T00:47:36;15.80;;;12.83;;
830;SDS011;397;50.564;7.272;2023-11-21T00:50:04;13.67;;;11.77;;
830;SDS011;397;50.564;7.272;2023-11-21T00:52:32;18.90;;;14.73;;
830;SDS011;397;50.564;7.272;2023-11-21T00:55:00;16.07;;;12.40;;
830;SDS011;397;50.564;7.272;2023-11-21T00:57:28;13.90;;;12.50;;
830;SDS011;397;50.564;7.272;2023-11-21T00:59:56;17.80;;;11.03;;
830;SDS011;397;50.564;7.272;2023-11-21T01:02:23;14.27;;;11.17;;
830;SDS011;397;50.564;7.272;2023-11-21T01:04:51;16.00;;;12.27;;
830;SDS011;397;50.564;7.272;2023-11-21T01:07:19;15.90;;;14.07;;
830;SDS011;397;50.564;7.272;2023-11-21T01:09:46;16.70;;;12.20;;
830;SDS011;397;50.564;7.272;2023-11-21T01:12:14;16.33;;;12.83;;
830;SDS011;397;50.564;7.272;2023-11-21T01:14:43;15.33;;;12.00;;
830;SDS011;397;50.564;7.272;2023-11-21T01:17:11;18.23;;;13.47;;
830;SDS011;397;50.564;7.272;2023-11-21T01:19:38;15.13;;;12.70;;
830;SDS011;397;50.564;7.272;2023-11-21T01:22:06;15.63;;;12.80;;
830;SDS011;397;50.564;7.272;2023-11-21T01:24:34;16.97;;;12.83;;
830;SDS011;397;50.564;7.272;2023-11-21T01:27:01;20.30;;;12.33;;
830;SDS011;397;50.564;7.272;2023-11-21T01:29:30;16.93;;;12.33;;
830;SDS011;397;50.564;7.272;2023-11-21T01:31:57;16.70;;;12.00;;
830;SDS011;397;50.564;7.272;2023-11-21T01:34:25;19.63;;;12.30;;
830;SDS011;397;50.564;7.272;2023-11-21T01:36:52;18.20;;;12.67;;
830;SDS011;397;50.564;7.272;2023-11-21T01:39:20;16.30;;;12.00;;
830;SDS011;397;50.564;7.272;2023-11-21T01:41:50;13.67;;;11.90;;
830;SDS011;397;50.564;7.272;2023-11-21T01:44:17;16.80;;;13.33;;
830;SDS011;397;50.564;7.272;2023-11-21T01:46:45;12.83;;;10.67;;
830;SDS011;397;50.564;7.272;2023-11-21T01:49:13;15.27;;;11.67;;
830;SDS011;397;50.564;7.272;2023-11-21T01:51:41;17.37;;;11.93;;
830;SDS011;397;50.564;7.272;2023-11-21T01:54:12;15.03;;;12.10;;
830;SDS011;397;50.564;7.272;2023-11-21T01:56:40;19.00;;;12.20;;
830;SDS011;397;50.564;7.272;2023-11-21T01:59:07;15.10;;;12.57;;
830;SDS011;397;50.564;7.272;2023-11-21T02:01:35;18.83;;;12.43;;
830;SDS011;397;50.564;7.272;2023-11-21T02:04:03;18.63;;;14.17;;
830;SDS011;397;50.564;7.272;2023-11-21T02:06:30;14.10;;;11.43;;
830;SDS011;397;50.564;7.272;2023-11-21T02:08:58;15.17;;;13.17;;
830;SDS011;397;50.564;7.272;2023-11-21T02:11:25;15.37;;;13.33;;
830;SDS011;397;50.564;7.272;2023-11-21T02:13:53;13.37;;;11.37;;
830;SDS011;397;50.564;7.272;2023-11-21T02:16:21;16.57;;;14.50;;
830;SDS011;397;50.564;7.272;2023-11-21T02:18:48;16.10;;;14.40;;
830;SDS011;397;50.564;7.272;2023-11-21T02:21:18;19.50;;;14.83;;
830;SDS011;397;50.564;7.272;2023-11-21T02:23:45;15.87;;;13.73;;
830;SDS011;397;50.564;7.272;2023-11-21T02:26:12;15.23;;;13.10;;
830;SDS011;397;50.564;7.272;2023-11-21T02:28:40;17.40;;;14.60;;
830;SDS011;397;50.564;7.272;2023-11-21T02:31:08;17.87;;;15.00;;
830;SDS011;397;50.564;7.272;2023-11-21T02:33:35;19.63;;;16.37;;
830;SDS011;397;50.564;7.272;2023-11-21T02:36:03;19.43;;;15.30;;
830;SDS011;397;50.564;7.272;2023-11-21T02:38:31;19.43;;;17.33;;
830;SDS011;397;50.564;7.272;2023-11-21T02:40:58;16.10;;;14.37;;
830;SDS011;397;50.564;7.272;2023-11-21T02:43:26;21.80;;;17.73;;
830;SDS011;397;50.564;7.272;2023-11-21T02:45:53;19.33;;;17.10;;
830;SDS011;397;50.564;7.272;2023-11-21T02:48:21;20.60;;;17.50;;
830;SDS011;397;50.564;7.272;2023-11-21T02:50:50;23.10;;;18.47;;
830;SDS011;397;50.564;7.272;2023-11-21T02:53:19;17.77;;;15.97;;
830;SDS011;397;50.564;7.272;2023-11-21T02:55:46;21.60;;;17.83;;
830;SDS011;397;50.564;7.272;2023-11-21T02:58:14;28.27;;;18.10;;
830;SDS011;397;50.564;7.272;2023-11-21T03:00:41;21.40;;;15.70;;
830;SDS011;397;50.564;7.272;2023-11-21T03:03:09;18.63;;;16.50;;
830;SDS011;397;50.564;7.272;2023-11-21T03:05:36;17.07;;;14.67;;
830;SDS011;397;50.564;7.272;2023-11-21T03:08:04;18.60;;;16.63;;
830;SDS011;397;50.564;7.272;2023-11-21T03:10:31;20.20;;;17.27;;
830;SDS011;397;50.564;7.272;2023-11-21T03:12:59;18.63;;;16.60;;
830;SDS011;397;50.564;7.272;2023-11-21T03:15:26;20.23;;;14.17;;
830;SDS011;397;50.564;7.272;2023-11-21T03:17:54;15.53;;;13.57;;
830;SDS011;397;50.564;7.272;2023-11-21T03:20:22;14.97;;;13.37;;
830;SDS011;397;50.564;7.272;2023-11-21T03:22:49;15.13;;;12.67;;
830;SDS011;397;50.564;7.272;2023-11-21T03:25:17;15.47;;;13.87;;
830;SDS011;397;50.564;7.272;2023-11-21T03:27:44;16.40;;;14.73;;
830;SDS011;397;50.564;7.272;2023-11-21T03:30:12;15.10;;;13.40;;
830;SDS011;397;50.564;7.272;2023-11-21T03:32:39;17.53;;;15.83;;
830;SDS011;397;50.564;7.272;2023-11-21T03:35:07;16.50;;;14.40;;
830;SDS011;397;50.564;7.272;2023-11-21T03:37:35;15.30;;;13.70;;
830;SDS011;397;50.564;7.272;2023-11-21T03:40:04;15.83;;;14.33;;
830;SDS011;397;50.564;7.272;2023-11-21T03:42:34;14.13;;;12.53;;
830;SDS011;397;50.564;7.272;2023-11-21T03:45:01;12.63;;;11.47;;
830;SDS011;397;50.564;7.272;2023-11-21T03:47:29;11.53;;;10.00;;
830;SDS011;397;50.564;7.272;2023-11-21T03:49:56;12.07;;;10.80;;
830;SDS011;397;50.564;7.272;2023-11-21T03:52:24;12.70;;;11.47;;
830;SDS011;397;50.564;7.272;2023-11-21T03:54:54;11.73;;;10.43;;
830;SDS011;397;50.564;7.272;2023-11-21T03:57:21;11.57;;;10.40;;
830;SDS011;397;50.564;7.272;2023-11-21T03:59:49;13.50;;;11.97;;
830;SDS011;397;50.564;7.272;2023-11-21T04:02:16;12.70;;;11.50;;
830;SDS011;397;50.564;7.272;2023-11-21T04:04:44;20.70;;;12.87;;
830;SDS011;397;50.564;7.272;2023-11-21T04:07:11;14.23;;;11.97;;
830;SDS011;397;50.564;7.272;2023-11-21T04:09:39;13.80;;;12.40;;
830;SDS011;397;50.564;7.272;2023-11-21T04:12:07;14.47;;;12.93;;
830;SDS011;397;50.564;7.272;2023-11-21T04:14:35;16.13;;;14.40;;
830;SDS011;397;50.564;7.272;2023-11-21T04:17:03;15.57;;;13.57;;
830;SDS011;397;50.564;7.272;2023-11-21T04:19:30;14.77;;;13.47;;
830;SDS011;397;50.564;7.272;2023-11-21T04:21:58;14.37;;;12.80;;
830;SDS011;397;50.564;7.272;2023-11-21T04:24:25;15.37;;;13.77;;
830;SDS011;397;50.564;7.272;2023-11-21T04:26:53;18.30;;;16.40;;
830;SDS011;397;50.564;7.272;2023-11-21T04:29:20;19.23;;;17.17;;
830;SDS011;397;50.564;7.272;2023-11-21T04:31:48;16.87;;;15.13;;
830;SDS011;397;50.564;7.272;2023-11-21T04:34:16;16.00;;;14.20;;
830;SDS011;397;50.564;7.272;2023-11-21T04:36:43;19.50;;;16.20;;
830;SDS011;397;50.564;7.272;2023-11-21T04:39:11;21.60;;;17.83;;
830;SDS011;397;50.564;7.272;2023-11-21T04:41:38;17.67;;;15.77;;
830;SDS011;397;50.564;7.272;2023-11-21T04:44:06;21.13;;;16.63;;
830;SDS011;397;50.564;7.272;2023-11-21T04:46:33;19.10;;;16.70;;
830;SDS011;397;50.564;7.272;2023-11-21T04:49:01;17.90;;;15.27;;
830;SDS011;397;50.564;7.272;2023-11-21T04:51:28;19.00;;;17.00;;
830;SDS011;397;50.564;7.272;2023-11-21T04:53:58;20.60;;;17.40;;
830;SDS011;397;50.564;7.272;2023-11-21T04:56:25;16.93;;;14.93;;
830;SDS011;397;50.564;7.272;2023-11-21T04:58:53;20.90;;;18.40;;
830;SDS011;397;50.564;7.272;2023-11-21T05:01:21;19.80;;;16.57;;
830;SDS011;397;50.564;7.272;2023-11-21T05:03:48;17.47;;;15.60;;
830;SDS011;397;50.564;7.272;2023-11-21T05:06:16;21.90;;;17.20;;
830;SDS011;397;50.564;7.272;2023-11-21T05:08:43;21.10;;;17.37;;
830;SDS011;397;50.564;7.272;2023-11-21T05:11:11;25.40;;;18.53;;
830;SDS011;397;50.564;7.272;2023-11-21T05:13:38;22.93;;;17.77;;
830;SDS011;397;50.564;7.272;2023-11-21T05:18:54;20.97;;;18.60;;
830;SDS011;397;50.564;7.272;2023-11-21T05:21:26;23.17;;;18.40;;
830;SDS011;397;50.564;7.272;2023-11-21T05:23:56;20.10;;;18.10;;
830;SDS011;397;50.564;7.272;2023-11-21T05:26:23;23.13;;;20.00;;
830;SDS011;397;50.564;7.272;2023-11-21T05:28:51;22.90;;;19.80;;
830;SDS011;397;50.564;7.272;2023-11-21T05:31:19;25.93;;;20.60;;
830;SDS011;397;50.564;7.272;2023-11-21T05:33:46;25.23;;;21.80;;
830;SDS011;397;50.564;7.272;2023-11-21T05:36:14;24.10;;;19.77;;
830;SDS011;397;50.564;7.272;2023-11-21T05:38:41;20.87;;;18.13;;
830;SDS011;397;50.564;7.272;2023-11-21T05:41:09;21.00;;;18.70;;
830;SDS011;397;50.564;7.272;2023-11-21T05:43:38;22.73;;;20.33;;
830;SDS011;397;50.564;7.272;2023-11-21T05:46:06;30.73;;;21.00;;
830;SDS011;397;50.564;7.272;2023-11-21T05:48:34;21.60;;;19.03;;
830;SDS011;397;50.564;7.272;2023-11-21T05:51:04;22.60;;;20.20;;
830;SDS011;397;50.564;7.272;2023-11-21T05:53:32;22.90;;;19.60;;
830;SDS011;397;50.564;7.272;2023-11-21T05:56:00;25.53;;;20.10;;
830;SDS011;397;50.564;7.272;2023-11-21T05:58:29;23.37;;;21.00;;
830;SDS011;397;50.564;7.272;2023-11-21T06:00:57;26.43;;;22.40;;
830;SDS011;397;50.564;7.272;2023-11-21T06:03:24;27.93;;;23.00;;
830;SDS011;397;50.564;7.272;2023-11-21T06:05:52;23.50;;;20.17;;
830;SDS011;397;50.564;7.272;2023-11-21T06:08:19;25.47;;;22.70;;
830;SDS011;397;50.564;7.272;2023-11-21T06:10:47;27.97;;;22.30;;
830;SDS011;397;50.564;7.272;2023-11-21T06:13:15;28.40;;;23.13;;
830;SDS011;397;50.564;7.272;2023-11-21T06:15:44;28.10;;;22.53;;
830;SDS011;397;50.564;7.272;2023-11-21T06:18:11;27.33;;;24.30;;
830;SDS011;397;50.564;7.272;2023-11-21T06:20:39;32.60;;;26.07;;
830;SDS011;397;50.564;7.272;2023-11-21T06:23:07;33.10;;;27.30;;
830;SDS011;397;50.564;7.272;2023-11-21T06:25:35;33.57;;;28.80;;
830;SDS011;397;50.564;7.272;2023-11-21T06:28:02;35.23;;;27.60;;
830;SDS011;397;50.564;7.272;2023-11-21T06:30:30;30.93;;;27.63;;
830;SDS011;397;50.564;7.272;2023-11-21T06:32:58;38.73;;;28.97;;
830;SDS011;397;50.564;7.272;2023-11-21T06:35:26;38.17;;;30.20;;
830;SDS011;397;50.564;7.272;2023-11-21T06:37:55;32.93;;;28.50;;
830;SDS011;397;50.564;7.272;2023-11-21T06:40:23;34.13;;;28.13;;
830;SDS011;397;50.564;7.272;2023-11-21T06:42:51;34.87;;;29.23;;
830;SDS011;397;50.564;7.272;2023-11-21T06:45:18;36.13;;;30.70;;
830;SDS011;397;50.564;7.272;2023-11-21T06:47:46;36.83;;;31.47;;
830;SDS011;397;50.564;7.272;2023-11-21T06:50:14;38.43;;;30.07;;
830;SDS011;397;50.564;7.272;2023-11-21T06:52:41;34.60;;;31.03;;
830;SDS011;397;50.564;7.272;2023-11-21T06:55:09;33.30;;;28.40;;
830;SDS011;397;50.564;7.272;2023-11-21T06:57:36;39.70;;;31.83;;
830;SDS011;397;50.564;7.272;2023-11-21T07:00:04;35.57;;;29.60;;
830;SDS011;397;50.564;7.272;2023-11-21T07:02:34;40.30;;;31.57;;
830;SDS011;397;50.564;7.272;2023-11-21T07:05:02;32.67;;;28.57;;
830;SDS011;397;50.564;7.272;2023-11-21T07:07:31;41.80;;;32.40;;
830;SDS011;397;50.564;7.272;2023-11-21T07:10:00;36.13;;;30.87;;
830;SDS011;397;50.564;7.272;2023-11-21T07:12:33;35.70;;;31.03;;
830;SDS011;397;50.564;7.272;2023-11-21T07:14:58;40.90;;;31.97;;
830;SDS011;397;50.564;7.272;2023-11-21T07:17:26;39.20;;;30.37;;
830;SDS011;397;50.564;7.272;2023-11-21T07:19:54;36.63;;;32.40;;
830;SDS011;397;50.564;7.272;2023-11-21T07:22:22;40.33;;;30.87;;
830;SDS011;397;50.564;7.272;2023-11-21T07:24:49;42.23;;;33.90;;
830;SDS011;397;50.564;7.272;2023-11-21T07:27:17;41.93;;;30.33;;
830;SDS011;397;50.564;7.272;2023-11-21T07:29:44;37.90;;;30.33;;
830;SDS011;397;50.564;7.272;2023-11-21T07:32:14;37.53;;;29.80;;
830;SDS011;397;50.564;7.272;2023-11-21T07:34:41;37.70;;;29.40;;
830;SDS011;397;50.564;7.272;2023-11-21T07:37:09;38.77;;;29.73;;
830;SDS011;397;50.564;7.272;2023-11-21T07:39:36;38.43;;;30.90;;
830;SDS011;397;50.564;7.272;2023-11-21T07:42:06;36.47;;;30.27;;
830;SDS011;397;50.564;7.272;2023-11-21T07:44:33;39.77;;;31.00;;
830;SDS011;397;50.564;7.272;2023-11-21T07:47:01;39.20;;;30.33;;
830;SDS011;397;50.564;7.272;2023-11-21T07:49:28;40.97;;;32.23;;
830;SDS011;397;50.564;7.272;2023-11-21T07:51:56;32.93;;;27.00;;
830;SDS011;397;50.564;7.272;2023-11-21T07:54:23;40.33;;;29.63;;
830;SDS011;397;50.564;7.272;2023-11-21T07:56:51;39.33;;;29.33;;
830;SDS011;397;50.564;7.272;2023-11-21T07:59:18;40.40;;;29.40;;
830;SDS011;397;50.564;7.272;2023-11-21T08:01:46;34.60;;;29.23;;
830;SDS011;397;50.564;7.272;2023-11-21T08:04:14;34.00;;;29.30;;
830;SDS011;397;50.564;7.272;2023-11-21T08:06:41;37.80;;;28.57;;
830;SDS011;397;50.564;7.272;2023-11-21T08:09:09;30.63;;;27.37;;
830;SDS011;397;50.564;7.272;2023-11-21T08:11:38;33.63;;;26.80;;
830;SDS011;397;50.564;7.272;2023-11-21T08:14:05;30.10;;;25.30;;
830;SDS011;397;50.564;7.272;2023-11-21T08:16:33;38.20;;;28.80;;
830;SDS011;397;50.564;7.272;2023-11-21T08:19:00;33.90;;;26.23;;
830;SDS011;397;50.564;7.272;2023-11-21T08:21:28;39.00;;;25.40;;
830;SDS011;397;50.564;7.272;2023-11-21T08:23:56;34.77;;;24.70;;
830;SDS011;397;50.564;7.272;2023-11-21T08:26:24;33.37;;;22.20;;
830;SDS011;397;50.564;7.272;2023-11-21T08:28:51;37.50;;;25.17;;
830;SDS011;397;50.564;7.272;2023-11-21T08:31:25;32.23;;;23.00;;
830;SDS011;397;50.564;7.272;2023-11-21T08:33:53;31.23;;;22.47;;
830;SDS011;397;50.564;7.272;2023-11-21T08:36:21;31.80;;;22.17;;
830;SDS011;397;50.564;7.272;2023-11-21T08:38:50;29.60;;;23.87;;
830;SDS011;397;50.564;7.272;2023-11-21T08:41:20;35.77;;;22.33;;
830;SDS011;397;50.564;7.272;2023-11-21T08:43:49;27.80;;;21.63;;
830;SDS011;397;50.564;7.272;2023-11-21T08:46:17;32.00;;;21.00;;
830;SDS011;397;50.564;7.272;2023-11-21T08:48:44;35.63;;;23.63;;
830;SDS011;397;50.564;7.272;2023-11-21T08:51:12;34.07;;;23.37;;
830;SDS011;397;50.564;7.272;2023-11-21T08:53:40;33.17;;;23.47;;
830;SDS011;397;50.564;7.272;2023-11-21T08:56:07;38.00;;;22.20;;
830;SDS011;397;50.564;7.272;2023-11-21T08:58:37;33.37;;;22.97;;
830;SDS011;397;50.564;7.272;2023-11-21T09:01:04;32.63;;;21.50;;
830;SDS011;397;50.564;7.272;2023-11-21T09:03:33;30.40;;;19.30;;
830;SDS011;397;50.564;7.272;2023-11-21T09:06:02;27.70;;;19.70;;
830;SDS011;397;50.564;7.272;2023-11-21T09:08:30;29.97;;;20.67;;
830;SDS011;397;50.564;7.272;2023-11-21T09:10:57;27.87;;;20.43;;
830;SDS011;397;50.564;7.272;2023-11-21T09:13:25;34.20;;;19.90;;
830;SDS011;397;50.564;7.272;2023-11-21T09:15:53;30.93;;;19.10;;
830;SDS011;397;50.564;7.272;2023-11-21T09:18:20;22.20;;;18.03;;
830;SDS011;397;50.564;7.272;2023-11-21T09:20:48;26.17;;;20.07;;
830;SDS011;397;50.564;7.272;2023-11-21T09:23:15;30.13;;;20.33;;
830;SDS011;397;50.564;7.272;2023-11-21T09:25:43;28.03;;;20.10;;
830;SDS011;397;50.564;7.272;2023-11-21T09:28:12;30.37;;;19.00;;
830;SDS011;397;50.564;7.272;2023-11-21T09:30:40;30.97;;;22.10;;
830;SDS011;397;50.564;7.272;2023-11-21T09:33:08;24.20;;;21.30;;
830;SDS011;397;50.564;7.272;2023-11-21T09:35:39;31.23;;;20.70;;
830;SDS011;397;50.564;7.272;2023-11-21T09:38:07;34.77;;;22.00;;
830;SDS011;397;50.564;7.272;2023-11-21T09:40:37;26.23;;;19.50;;
830;SDS011;397;50.564;7.272;2023-11-21T09:43:09;31.20;;;22.20;;
830;SDS011;397;50.564;7.272;2023-11-21T09:45:40;33.17;;;21.97;;
830;SDS011;397;50.564;7.272;2023-11-21T09:48:09;27.20;;;21.50;;
830;SDS011;397;50.564;7.272;2023-11-21T09:50:37;30.53;;;24.53;;
830;SDS011;397;50.564;7.272;2023-11-21T09:53:11;32.73;;;21.70;;
830;SDS011;397;50.564;7.272;2023-11-21T09:55:50;28.30;;;21.30;;
830;SDS011;397;50.564;7.272;2023-11-21T09:58:19;30.13;;;22.43;;
830;SDS011;397;50.564;7.272;2023-11-21T10:00:52;27.10;;;19.80;;
830;SDS011;397;50.564;7.272;2023-11-21T10:03:20;34.67;;;20.67;;
830;SDS011;397;50.564;7.272;2023-11-21T10:05:48;23.90;;;19.77;;
830;SDS011;397;50.564;7.272;2023-11-21T10:08:18;28.17;;;19.60;;
830;SDS011;397;50.564;7.272;2023-11-21T10:10:51;32.07;;;21.00;;
830;SDS011;397;50.564;7.272;2023-11-21T10:13:20;27.87;;;19.97;;
830;SDS011;397;50.564;7.272;2023-11-21T10:15:52;27.87;;;19.80;;
830;SDS011;397;50.564;7.272;2023-11-21T10:18:17;29.13;;;20.73;;
830;SDS011;397;50.564;7.272;2023-11-21T10:20:45;27.20;;;22.20;;
830;SDS011;397;50.564;7.272;2023-11-21T10:23:14;26.73;;;20.30;;
830;SDS011;397;50.564;7.272;2023-11-21T10:25:42;37.90;;;29.13;;
830;SDS011;397;50.564;7.272;2023-11-21T10:28:09;32.80;;;21.53;;
830;SDS011;397;50.564;7.272;2023-11-21T10:30:38;27.37;;;18.70;;
830;SDS011;397;50.564;7.272;2023-11-21T10:33:06;32.83;;;21.40;;
830;SDS011;397;50.564;7.272;2023-11-21T10:35:44;26.73;;;19.17;;
830;SDS011;397;50.564;7.272;2023-11-21T10:38:14;26.83;;;21.27;;
830;SDS011;397;50.564;7.272;2023-11-21T10:40:42;28.30;;;21.90;;
830;SDS011;397;50.564;7.272;2023-11-21T10:43:12;22.10;;;18.27;;
830;SDS011;397;50.564;7.272;2023-11-21T10:45:42;25.83;;;18.63;;
830;SDS011;397;50.564;7.272;2023-11-21T10:48:12;28.57;;;20.97;;
830;SDS011;397;50.564;7.272;2023-11-21T10:50:43;26.33;;;18.90;;
830;SDS011;397;50.564;7.272;2023-11-21T10:53:12;33.40;;;20.27;;
830;SDS011;397;50.564;7.272;2023-11-21T10:55:40;25.17;;;20.60;;
830;SDS011;397;50.564;7.272;2023-11-21T10:58:10;31.77;;;21.67;;
830;SDS011;397;50.564;7.272;2023-11-21T11:00:39;31.33;;;19.90;;
830;SDS011;397;50.564;7.272;2023-11-21T11:03:09;33.80;;;21.23;;
830;SDS011;397;50.564;7.272;2023-11-21T11:05:39;36.13;;;23.83;;
830;SDS011;397;50.564;7.272;2023-11-21T11:08:12;35.47;;;24.30;;
830;SDS011;397;50.564;7.272;2023-11-21T11:10:43;37.93;;;24.40;;
830;SDS011;397;50.564;7.272;2023-11-21T11:13:13;31.50;;;23.53;;
830;SDS011;397;50.564;7.272;2023-11-21T11:15:41;34.10;;;23.10;;
830;SDS011;397;50.564;7.272;2023-11-21T11:18:11;28.97;;;21.67;;
830;SDS011;397;50.564;7.272;2023-11-21T11:20:39;34.93;;;24.87;;
830;SDS011;397;50.564;7.272;2023-11-21T11:26:05;33.60;;;24.30;;
830;SDS011;397;50.564;7.272;2023-11-21T11:28:35;30.83;;;25.57;;
830;SDS011;397;50.564;7.272;2023-11-21T11:31:37;33.03;;;24.83;;
830;SDS011;397;50.564;7.272;2023-11-21T11:34:23;32.70;;;25.20;;
830;SDS011;397;50.564;7.272;2023-11-21T11:37:16;30.37;;;23.07;;
830;SDS011;397;50.564;7.272;2023-11-21T11:39:44;31.13;;;23.40;;
830;SDS011;397;50.564;7.272;2023-11-21T11:42:16;31.00;;;23.00;;
830;SDS011;397;50.564;7.272;2023-11-21T11:44:46;31.47;;;24.10;;
830;SDS011;397;50.564;7.272;2023-11-21T11:47:17;30.57;;;21.07;;
830;SDS011;397;50.564;7.272;2023-11-21T11:49:55;26.40;;;21.00;;
830;SDS011;397;50.564;7.272;2023-11-21T11:55:12;28.03;;;21.67;;
830;SDS011;397;50.564;7.272;2023-11-21T11:57:42;29.87;;;20.77;;
830;SDS011;397;50.564;7.272;2023-11-21T12:00:19;28.40;;;22.63;;
830;SDS011;397;50.564;7.272;2023-11-21T12:02:49;26.47;;;21.43;;
830;SDS011;397;50.564;7.272;2023-11-21T12:05:19;28.67;;;22.50;;
830;SDS011;397;50.564;7.272;2023-11-21T12:07:49;34.53;;;23.70;;
830;SDS011;397;50.564;7.272;2023-11-21T12:10:20;28.53;;;21.10;;
830;SDS011;397;50.564;7.272;2023-11-21T12:12:51;27.53;;;21.97;;
830;SDS011;397;50.564;7.272;2023-11-21T12:15:20;28.80;;;21.80;;
830;SDS011;397;50.564;7.272;2023-11-21T12:17:48;25.93;;;21.20;;
830;SDS011;397;50.564;7.272;2023-11-21T12:20:20;27.27;;;22.27;;
830;SDS011;397;50.564;7.272;2023-11-21T12:22:52;26.57;;;21.17;;
830;SDS011;397;50.564;7.272;2023-11-21T12:25:24;28.23;;;22.80;;
830;SDS011;397;50.564;7.272;2023-11-21T12:27:57;26.00;;;22.10;;
830;SDS011;397;50.564;7.272;2023-11-21T12:30:26;24.90;;;22.20;;
830;SDS011;397;50.564;7.272;2023-11-21T12:32:57;25.93;;;21.80;;
830;SDS011;397;50.564;7.272;2023-11-21T12:35:28;27.20;;;21.33;;
830;SDS011;397;50.564;7.272;2023-11-21T12:37:59;25.90;;;20.27;;
830;SDS011;397;50.564;7.272;2023-11-21T12:40:31;24.67;;;22.03;;
830;SDS011;397;50.564;7.272;2023-11-21T12:42:59;23.83;;;20.73;;
830;SDS011;397;50.564;7.272;2023-11-21T12:45:29;29.23;;;21.87;;
830;SDS011;397;50.564;7.272;2023-11-21T12:47:58;34.93;;;22.80;;
830;SDS011;397;50.564;7.272;2023-11-21T12:50:29;26.70;;;21.27;;
830;SDS011;397;50.564;7.272;2023-11-21T12:53:00;35.40;;;25.17;;
830;SDS011;397;50.564;7.272;2023-11-21T12:55:32;27.83;;;21.83;;
830;SDS011;397;50.564;7.272;2023-11-21T12:58:02;37.13;;;24.40;;
830;SDS011;397;50.564;7.272;2023-11-21T13:00:47;31.00;;;22.87;;
830;SDS011;397;50.564;7.272;2023-11-21T13:03:17;30.90;;;22.80;;
830;SDS011;397;50.564;7.272;2023-11-21T13:05:46;30.07;;;23.17;;
830;SDS011;397;50.564;7.272;2023-11-21T13:08:20;30.50;;;24.00;;
830;SDS011;397;50.564;7.272;2023-11-21T13:10:53;34.93;;;23.10;;
830;SDS011;397;50.564;7.272;2023-11-21T13:13:22;29.33;;;22.73;;
830;SDS011;397;50.564;7.272;2023-11-21T13:15:51;31.30;;;22.43;;
830;SDS011;397;50.564;7.272;2023-11-21T13:18:25;31.30;;;22.80;;
830;SDS011;397;50.564;7.272;2023-11-21T13:20:54;31.30;;;20.63;;
830;SDS011;397;50.564;7.272;2023-11-21T13:23:23;32.70;;;21.80;;
830;SDS011;397;50.564;7.272;2023-11-21T13:25:51;31.70;;;22.63;;
830;SDS011;397;50.564;7.272;2023-11-21T13:28:19;31.13;;;21.90;;
830;SDS011;397;50.564;7.272;2023-11-21T13:30:49;28.70;;;21.37;;
830;SDS011;397;50.564;7.272;2023-11-21T13:33:18;32.63;;;21.97;;
830;SDS011;397;50.564;7.272;2023-11-21T13:35:47;32.00;;;22.37;;
830;SDS011;397;50.564;7.272;2023-11-21T13:38:17;31.73;;;24.03;;
830;SDS011;397;50.564;7.272;2023-11-21T13:40:48;28.63;;;20.57;;
830;SDS011;397;50.564;7.272;2023-11-21T13:43:18;29.87;;;22.77;;
830;SDS011;397;50.564;7.272;2023-11-21T13:45:48;31.63;;;22.80;;
830;SDS011;397;50.564;7.272;2023-11-21T13:48:23;28.37;;;21.47;;
830;SDS011;397;50.564;7.272;2023-11-21T13:51:11;35.10;;;23.20;;
830;SDS011;397;50.564;7.272;2023-11-21T13:53:46;28.93;;;20.33;;
830;SDS011;397;50.564;7.272;2023-11-21T13:56:16;26.67;;;20.33;;
830;SDS011;397;50.564;7.272;2023-11-21T13:58:45;26.43;;;22.00;;
830;SDS011;397;50.564;7.272;2023-11-21T14:01:20;24.50;;;19.93;;
830;SDS011;397;50.564;7.272;2023-11-21T14:04:00;29.90;;;20.87;;
830;SDS011;397;50.564;7.272;2023-11-21T14:06:44;27.90;;;19.70;;
830;SDS011;397;50.564;7.272;2023-11-21T14:09:18;35.43;;;22.27;;
830;SDS011;397;50.564;7.272;2023-11-21T14:11:55;26.00;;;20.40;;
830;SDS011;397;50.564;7.272;2023-11-21T14:14:23;32.97;;;21.47;;
830;SDS011;397;50.564;7.272;2023-11-21T14:16:53;26.17;;;20.60;;
830;SDS011;397;50.564;7.272;2023-11-21T14:19:22;29.50;;;21.03;;
830;SDS011;397;50.564;7.272;2023-11-21T14:21:51;32.63;;;20.73;;
830;SDS011;397;50.564;7.272;2023-11-21T14:24:19;24.90;;;19.53;;
830;SDS011;397;50.564;7.272;2023-11-21T14:26:48;29.67;;;21.73;;
830;SDS011;397;50.564;7.272;2023-11-21T14:29:17;27.87;;;19.60;;
830;SDS011;397;50.564;7.272;2023-11-21T14:31:49;25.33;;;21.73;;
830;SDS011;397;50.564;7.272;2023-11-21T14:34:18;29.17;;;20.37;;
830;SDS011;397;50.564;7.272;2023-11-21T14:36:47;30.57;;;19.73;;
830;SDS011;397;50.564;7.272;2023-11-21T14:39:15;33.10;;;20.90;;
830;SDS011;397;50.564;7.272;2023-11-21T14:41:44;34.00;;;23.80;;
830;SDS011;397;50.564;7.272;2023-11-21T14:44:12;29.30;;;21.10;;
830;SDS011;397;50.564;7.272;2023-11-21T14:46:41;30.80;;;20.47;;
830;SDS011;397;50.564;7.272;2023-11-21T14:49:13;27.80;;;20.20;;
830;SDS011;397;50.564;7.272;2023-11-21T14:51:48;33.17;;;20.10;;
830;SDS011;397;50.564;7.272;2023-11-21T14:54:32;27.70;;;22.07;;
830;SDS011;397;50.564;7.272;2023-11-21T14:57:09;29.00;;;21.00;;
830;SDS011;397;50.564;7.272;2023-11-21T14:59:42;27.50;;;19.60;;
830;SDS011;397;50.564;7.272;2023-11-21T15:02:11;26.77;;;19.67;;
830;SDS011;397;50.564;7.272;2023-11-21T15:04:43;30.97;;;19.83;;
830;SDS011;397;50.564;7.272;2023-11-21T15:07:11;32.47;;;20.70;;
830;SDS011;397;50.564;7.272;2023-11-21T15:09:39;41.63;;;22.47;;
830;SDS011;397;50.564;7.272;2023-11-21T15:12:08;30.73;;;19.57;;
830;SDS011;397;50.564;7.272;2023-11-21T15:14:46;31.37;;;21.60;;
830;SDS011;397;50.564;7.272;2023-11-21T15:17:16;31.70;;;21.03;;
830;SDS011;397;50.564;7.272;2023-11-21T15:19:54;32.30;;;20.80;;
830;SDS011;397;50.564;7.272;2023-11-21T15:22:23;32.00;;;19.93;;
830;SDS011;397;50.564;7.272;2023-11-21T15:24:52;27.47;;;20.50;;
830;SDS011;397;50.564;7.272;2023-11-21T15:27:19;24.63;;;17.80;;
830;SDS011;397;50.564;7.272;2023-11-21T15:29:47;28.70;;;18.63;;
830;SDS011;397;50.564;7.272;2023-11-21T15:32:15;28.60;;;19.23;;
830;SDS011;397;50.564;7.272;2023-11-21T15:34:43;34.80;;;30.13;;
830;SDS011;397;50.564;7.272;2023-11-21T15:37:12;34.80;;;28.37;;